Time;durP1;ratioP1;P1;durP2;ratioP2;P2;SDS_P1;SDS_P2;PMS_P1;PMS_P2;Temp;Humidity;BMP_temperature;BMP_pressure;BME280_temperature;BME280_humidity;BME280_pressure;Samples;Min_cycle;Max_cycle;Signal;HPM_P1;HPM_P2
2021/09/28 00:17:15;;;;;;;1.83;1.67;;;;;;;;;;4516373;28;20243;-66
2021/09/28 00:19:41;;;;;;;2.35;1.90;;;;;;;;;;4152226;34;20483;-65
2021/09/28 00:22:07;;;;;;;4.82;2.15;;;;;;;;;;4149271;34;20110;-66
2021/09/28 00:24:34;;;;;;;3.20;1.80;;;;;;;;;;4148965;34;20527;-66
2021/09/28 00:27:00;;;;;;;4.25;2.70;;;;;;;;;;4148926;34;20123;-66
2021/09/28 00:29:26;;;;;;;2.85;1.90;;;;;;;;;;4150128;34;20119;-64
2021/09/28 00:31:52;;;;;;;2.95;2.00;;;;;;;;;;4149797;34;20273;-64
2021/09/28 00:34:18;;;;;;;2.60;1.70;;;;;;;;;;4151090;34;20123;-65
2021/09/28 00:36:44;;;;;;;2.15;1.77;;;;;;;;;;4151132;34;20517;-67
2021/09/28 00:39:10;;;;;;;2.58;2.25;;;;;;;;;;4151066;34;20099;-65
2021/09/28 00:41:36;;;;;;;2.35;1.85;;;;;;;;;;4151244;34;20119;-64
2021/09/28 00:44:02;;;;;;;2.42;1.70;;;;;;;;;;4149617;34;20096;-67
2021/09/28 00:46:28;;;;;;;4.50;1.60;;;;;;;;;;4151302;34;20125;-66
2021/09/28 00:48:54;;;;;;;4.32;1.52;;;;;;;;;;4150982;34;20133;-66
2021/09/28 00:51:20;;;;;;;1.90;1.60;;;;;;;;;;4151294;34;20129;-64
2021/09/28 00:53:50;;;;;;;3.10;1.50;;;;;;;;;;4149418;34;20624;-67
2021/09/28 00:56:18;;;;;;;3.60;1.85;;;;;;;;;;4149663;34;20167;-67
2021/09/28 00:58:44;;;;;;;1.75;1.60;;;;;;;;;;4150977;34;20562;-67
2021/09/28 01:01:10;;;;;;;1.90;1.70;;;;;;;;;;4151043;34;20114;-66
2021/09/28 01:03:36;;;;;;;2.47;1.60;;;;;;;;;;4150895;34;20134;-65
2021/09/28 01:06:02;;;;;;;1.90;1.75;;;;;;;;;;4149664;34;20134;-67
2021/09/28 01:08:28;;;;;;;3.83;1.70;;;;;;;;;;4149695;34;20530;-65
2021/09/28 01:10:54;;;;;;;2.65;1.98;;;;;;;;;;4150954;34;20126;-68
2021/09/28 01:13:21;;;;;;;2.00;1.80;;;;;;;;;;4149324;34;20202;-68
2021/09/28 01:15:59;;;;;;;2.42;1.90;;;;;;;;;;4149450;34;20114;-67
2021/09/28 01:18:37;;;;;;;4.12;1.85;;;;;;;;;;4150674;34;20130;-67
2021/09/28 01:21:04;;;;;;;5.65;2.15;;;;;;;;;;4147124;34;20486;-66
2021/09/28 01:23:30;;;;;;;4.65;2.12;;;;;;;;;;4135966;34;20545;-66
2021/09/28 01:25:56;;;;;;;2.80;1.90;;;;;;;;;;4137362;34;20111;-65
2021/09/28 01:28:22;;;;;;;2.50;2.00;;;;;;;;;;4137259;34;20124;-67
2021/09/28 01:30:48;;;;;;;2.50;1.90;;;;;;;;;;4135932;34;20206;-67
2021/09/28 01:33:15;;;;;;;4.30;2.12;;;;;;;;;;4137153;34;20128;-66
2021/09/28 01:35:41;;;;;;;2.10;1.90;;;;;;;;;;4135980;34;20216;-65
2021/09/28 01:38:07;;;;;;;4.82;2.58;;;;;;;;;;4137428;34;20119;-68
2021/09/28 01:40:36;;;;;;;4.75;2.17;;;;;;;;;;4147034;34;20216;-66
2021/09/28 01:43:08;;;;;;;3.83;2.10;;;;;;;;;;4137206;34;20182;-67
2021/09/28 01:45:35;;;;;;;3.50;2.10;;;;;;;;;;4137332;34;20111;-66
2021/09/28 01:48:01;;;;;;;5.00;2.90;;;;;;;;;;4137177;34;20187;-68
2021/09/28 01:50:26;;;;;;;3.45;2.17;;;;;;;;;;4137280;34;20130;-65
2021/09/28 01:52:52;;;;;;;3.08;2.50;;;;;;;;;;4138645;34;20538;-68
2021/09/28 01:55:19;;;;;;;3.10;2.10;;;;;;;;;;4150038;34;20190;-66
2021/09/28 01:57:45;;;;;;;3.40;2.47;;;;;;;;;;4149429;34;20413;-65
2021/09/28 02:00:12;;;;;;;2.90;2.22;;;;;;;;;;4150545;34;20120;-65
2021/09/28 02:02:38;;;;;;;3.00;2.30;;;;;;;;;;4149125;34;20130;-65
2021/09/28 02:05:04;;;;;;;2.95;2.42;;;;;;;;;;4149016;34;20195;-67
2021/09/28 02:07:30;;;;;;;5.62;2.60;;;;;;;;;;4150351;34;20115;-65
2021/09/28 02:09:56;;;;;;;6.22;2.50;;;;;;;;;;4150309;34;20142;-68
2021/09/28 02:12:22;;;;;;;5.55;2.20;;;;;;;;;;4150557;34;20134;-70
2021/09/28 02:15:14;;;;;;;3.53;2.50;;;;;;;;;;4150009;34;20125;-62
2021/09/28 02:18:25;;;;;;;3.17;2.20;;;;;;;;;;4146609;34;20118;-62
2021/09/28 02:20:53;;;;;;;3.33;2.20;;;;;;;;;;4148521;34;20426;-63
2021/09/28 02:23:19;;;;;;;5.72;2.20;;;;;;;;;;4148892;34;20454;-63
2021/09/28 02:25:45;;;;;;;3.95;1.98;;;;;;;;;;4145931;34;20507;-62
2021/09/28 02:28:11;;;;;;;3.05;2.40;;;;;;;;;;4148784;34;20126;-60
2021/09/28 02:30:37;;;;;;;4.30;2.78;;;;;;;;;;4149929;34;20121;-61
2021/09/28 02:33:03;;;;;;;3.15;2.83;;;;;;;;;;4150320;34;20131;-70
2021/09/28 02:35:29;;;;;;;2.78;2.33;;;;;;;;;;4150157;34;20528;-70
2021/09/28 02:37:56;;;;;;;5.05;3.15;;;;;;;;;;4148986;34;20091;-68
2021/09/28 02:40:23;;;;;;;7.60;2.90;;;;;;;;;;4150325;34;20127;-69
2021/09/28 02:42:49;;;;;;;6.40;2.70;;;;;;;;;;4148885;34;20516;-68
2021/09/28 02:45:15;;;;;;;5.57;2.58;;;;;;;;;;4149972;34;20118;-64
2021/09/28 02:47:41;;;;;;;5.85;2.70;;;;;;;;;;4148801;34;20126;-65
2021/09/28 02:50:07;;;;;;;5.85;2.42;;;;;;;;;;4149837;34;20119;-64
2021/09/28 02:52:34;;;;;;;3.97;2.80;;;;;;;;;;4148017;34;20126;-64
2021/09/28 02:55:00;;;;;;;3.72;2.90;;;;;;;;;;4149918;34;20138;-67
2021/09/28 02:57:25;;;;;;;5.47;3.40;;;;;;;;;;4149862;34;20099;-67
2021/09/28 02:59:51;;;;;;;7.68;3.20;;;;;;;;;;4148743;34;20123;-74
2021/09/28 03:02:19;;;;;;;4.93;3.22;;;;;;;;;;4149975;34;20302;-72
2021/09/28 03:04:48;;;;;;;5.82;3.72;;;;;;;;;;4148806;34;20432;-69
2021/09/28 03:07:14;;;;;;;10.02;5.37;;;;;;;;;;4149663;34;20198;-67
2021/09/28 03:09:40;;;;;;;8.55;5.72;;;;;;;;;;4149919;34;20146;-75
2021/09/28 03:12:07;;;;;;;9.93;4.53;;;;;;;;;;4148167;34;20130;-63
2021/09/28 03:14:33;;;;;;;13.35;4.93;;;;;;;;;;4149735;34;20110;-63
2021/09/28 03:16:59;;;;;;;6.35;2.75;;;;;;;;;;4149419;34;20135;-66
2021/09/28 03:20:20;;;;;;;6.12;2.72;;;;;;;;;;4148100;34;20230;-67
2021/09/28 03:23:05;;;;;;;6.18;2.78;;;;;;;;;;4148208;34;20479;-69
2021/09/28 03:25:31;;;;;;;7.07;2.97;;;;;;;;;;4146369;34;20549;-64
2021/09/28 03:27:57;;;;;;;6.40;3.33;;;;;;;;;;4148386;34;20119;-65
2021/09/28 03:30:23;;;;;;;5.93;3.62;;;;;;;;;;4149623;34;20146;-65
2021/09/28 03:32:49;;;;;;;5.62;3.75;;;;;;;;;;4149566;34;20150;-70
2021/09/28 03:35:15;;;;;;;4.80;2.58;;;;;;;;;;4149509;34;20779;-64
2021/09/28 03:37:49;;;;;;;6.37;3.20;;;;;;;;;;4149397;34;20212;-64
2021/09/28 03:40:15;;;;;;;7.12;3.30;;;;;;;;;;4148061;34;20115;-65
2021/09/28 03:42:41;;;;;;;7.50;3.08;;;;;;;;;;4149170;34;20103;-63
2021/09/28 03:45:08;;;;;;;4.53;3.00;;;;;;;;;;4148080;34;20102;-67
2021/09/28 03:47:34;;;;;;;6.32;3.92;;;;;;;;;;4149433;34;20550;-64
2021/09/28 03:50:00;;;;;;;7.95;4.85;;;;;;;;;;4148234;34;20187;-64
2021/09/28 03:52:27;;;;;;;11.27;6.37;;;;;;;;;;4147208;34;20115;-64
2021/09/28 03:54:53;;;;;;;7.95;5.07;;;;;;;;;;4147954;34;20182;-65
2021/09/28 03:57:19;;;;;;;29.05;5.37;;;;;;;;;;4149262;34;20119;-70
2021/09/28 03:59:46;;;;;;;6.72;3.08;;;;;;;;;;4147880;34;20614;-69
2021/09/28 04:02:13;;;;;;;7.03;2.60;;;;;;;;;;4146197;34;20110;-69
2021/09/28 04:04:41;;;;;;;6.82;2.62;;;;;;;;;;4150672;34;20219;-69
2021/09/28 04:07:07;;;;;;;14.27;3.00;;;;;;;;;;4150002;34;20117;-65
2021/09/28 04:09:33;;;;;;;7.80;2.92;;;;;;;;;;4151288;34;20127;-65
2021/09/28 04:11:59;;;;;;;7.15;2.92;;;;;;;;;;4150170;34;20112;-65
2021/09/28 04:14:26;;;;;;;9.15;3.00;;;;;;;;;;4151146;34;20134;-66
2021/09/28 04:16:52;;;;;;;5.18;2.80;;;;;;;;;;4149297;34;20100;-65
2021/09/28 04:19:25;;;;;;;10.10;3.10;;;;;;;;;;4151212;34;20154;-68
2021/09/28 04:21:54;;;;;;;10.18;2.92;;;;;;;;;;4149827;34;20119;-67
2021/09/28 04:24:20;;;;;;;9.20;2.65;;;;;;;;;;4151259;34;20129;-68
2021/09/28 04:26:46;;;;;;;3.60;2.85;;;;;;;;;;4149839;34;20158;-68
2021/09/28 04:29:12;;;;;;;10.43;3.12;;;;;;;;;;4151093;34;20139;-68
2021/09/28 04:31:38;;;;;;;5.37;3.47;;;;;;;;;;4151461;34;20447;-67
2021/09/28 04:34:04;;;;;;;8.10;3.30;;;;;;;;;;4151054;34;20226;-68
2021/09/28 04:36:30;;;;;;;4.65;2.97;;;;;;;;;;4151284;34;20212;-67
2021/09/28 04:38:56;;;;;;;5.15;2.92;;;;;;;;;;4149632;34;20127;-68
2021/09/28 04:41:22;;;;;;;10.70;3.78;;;;;;;;;;4149772;34;20123;-67
2021/09/28 04:43:48;;;;;;;4.05;2.58;;;;;;;;;;4138590;34;20130;-67
2021/09/28 04:46:15;;;;;;;15.45;3.03;;;;;;;;;;4150816;34;20129;-68
2021/09/28 04:48:43;;;;;;;6.50;2.72;;;;;;;;;;4151209;34;20187;-67
2021/09/28 04:51:09;;;;;;;6.85;2.72;;;;;;;;;;4150875;34;20119;-67
2021/09/28 04:53:35;;;;;;;8.25;2.75;;;;;;;;;;4151200;34;20208;-69
2021/09/28 04:56:01;;;;;;;6.72;2.83;;;;;;;;;;4149400;34;20123;-66
2021/09/28 04:58:27;;;;;;;5.15;3.37;;;;;;;;;;4138357;34;20111;-68
2021/09/28 05:00:53;;;;;;;7.10;2.90;;;;;;;;;;4149526;34;20550;-68
2021/09/28 05:03:19;;;;;;;7.03;3.08;;;;;;;;;;4150837;34;20127;-67
2021/09/28 05:05:45;;;;;;;6.03;2.92;;;;;;;;;;4149468;34;20127;-65
2021/09/28 05:08:11;;;;;;;5.03;2.97;;;;;;;;;;4150789;34;20576;-65
2021/09/28 05:10:37;;;;;;;7.37;3.00;;;;;;;;;;4149311;34;20122;-66
2021/09/28 05:13:05;;;;;;;7.68;3.20;;;;;;;;;;4150531;34;20183;-66
2021/09/28 05:15:32;;;;;;;6.37;3.30;;;;;;;;;;4148811;34;20100;-65
2021/09/28 05:17:58;;;;;;;10.70;3.50;;;;;;;;;;4149114;34;20142;-66
2021/09/28 05:20:24;;;;;;;9.35;3.05;;;;;;;;;;4149460;34;20201;-66
2021/09/28 05:22:50;;;;;;;6.80;2.87;;;;;;;;;;4150842;34;20206;-65
2021/09/28 05:25:16;;;;;;;5.43;3.12;;;;;;;;;;4150796;34;20143;-66
2021/09/28 05:27:42;;;;;;;9.38;3.70;;;;;;;;;;4150672;34;20563;-65
2021/09/28 05:30:08;;;;;;;6.18;3.50;;;;;;;;;;4150716;34;20139;-66
2021/09/28 05:32:34;;;;;;;5.75;3.58;;;;;;;;;;4150657;34;20239;-65
2021/09/28 05:35:00;;;;;;;7.12;3.83;;;;;;;;;;4149286;34;20107;-68
2021/09/28 05:37:26;;;;;;;6.20;3.17;;;;;;;;;;4150784;34;20121;-70
2021/09/28 05:39:52;;;;;;;4.22;3.60;;;;;;;;;;4149332;34;20103;-71
2021/09/28 05:42:18;;;;;;;4.10;3.30;;;;;;;;;;4149262;34;20450;-71
2021/09/28 05:44:44;;;;;;;4.97;3.53;;;;;;;;;;4149267;34;20111;-71
2021/09/28 05:47:10;;;;;;;5.60;3.10;;;;;;;;;;4150358;34;20138;-70
2021/09/28 05:49:38;;;;;;;11.80;3.75;;;;;;;;;;4150844;34;20530;-71
2021/09/28 05:52:08;;;;;;;7.70;4.45;;;;;;;;;;4148891;34;20130;-71
2021/09/28 05:54:39;;;;;;;4.97;3.83;;;;;;;;;;4149337;34;20135;-63
2021/09/28 05:57:05;;;;;;;8.43;3.80;;;;;;;;;;4138172;34;20099;-63
2021/09/28 05:59:32;;;;;;;5.75;3.67;;;;;;;;;;4150366;34;20131;-63
2021/09/28 06:01:58;;;;;;;6.50;3.50;;;;;;;;;;4138038;34;20199;-68
2021/09/28 06:04:24;;;;;;;6.62;3.85;;;;;;;;;;4149422;34;20114;-68
2021/09/28 06:06:50;;;;;;;6.53;3.65;;;;;;;;;;4150263;34;20103;-65
2021/09/28 06:09:16;;;;;;;6.18;4.30;;;;;;;;;;4150562;34;20145;-68
2021/09/28 06:11:43;;;;;;;11.07;3.72;;;;;;;;;;4149090;34;20548;-63
2021/09/28 06:14:09;;;;;;;6.30;3.55;;;;;;;;;;4150273;34;20122;-65
2021/09/28 06:16:36;;;;;;;5.40;3.60;;;;;;;;;;4150434;34;20118;-64
2021/09/28 06:19:01;;;;;;;6.50;3.75;;;;;;;;;;4148773;34;20115;-63
2021/09/28 06:21:27;;;;;;;5.45;4.00;;;;;;;;;;4148738;34;20122;-71
2021/09/28 06:23:54;;;;;;;5.40;4.32;;;;;;;;;;4150337;34;20134;-69
2021/09/28 06:26:21;;;;;;;5.72;3.80;;;;;;;;;;4147998;34;20130;-63
2021/09/28 06:28:47;;;;;;;8.10;3.72;;;;;;;;;;4148985;34;20440;-66
2021/09/28 06:31:12;;;;;;;5.00;3.75;;;;;;;;;;4148757;34;20119;-66
2021/09/28 06:33:38;;;;;;;17.48;4.28;;;;;;;;;;4150541;34;20119;-67
2021/09/28 06:36:04;;;;;;;6.82;4.12;;;;;;;;;;4150060;34;20531;-68
2021/09/28 06:38:30;;;;;;;7.57;3.25;;;;;;;;;;4150169;34;20162;-67
2021/09/28 06:40:58;;;;;;;8.25;3.85;;;;;;;;;;4149976;34;20102;-67
2021/09/28 06:43:24;;;;;;;14.27;6.55;;;;;;;;;;4149017;34;20100;-61
2021/09/28 06:45:51;;;;;;;8.77;4.20;;;;;;;;;;4137389;34;20104;-69
2021/09/28 06:48:18;;;;;;;6.53;4.75;;;;;;;;;;4150037;34;20099;-70
2021/09/28 06:50:45;;;;;;;9.98;4.57;;;;;;;;;;4150202;34;20115;-68
2021/09/28 06:53:11;;;;;;;8.25;5.35;;;;;;;;;;4150043;34;20183;-67
2021/09/28 06:55:37;;;;;;;6.40;5.03;;;;;;;;;;4149967;34;20463;-69
2021/09/28 06:58:04;;;;;;;7.35;4.80;;;;;;;;;;4150087;34;20094;-71
2021/09/28 07:00:35;;;;;;;9.88;4.62;;;;;;;;;;4150020;34;20134;-65
2021/09/28 07:03:01;;;;;;;14.55;5.35;;;;;;;;;;4150118;34;20499;-68
2021/09/28 07:05:27;;;;;;;7.68;5.00;;;;;;;;;;4137284;34;20510;-68
2021/09/28 07:07:53;;;;;;;11.75;5.93;;;;;;;;;;4150140;34;20130;-65
2021/09/28 07:10:19;;;;;;;8.98;5.20;;;;;;;;;;4149809;34;20130;-69
2021/09/28 07:12:45;;;;;;;8.25;4.97;;;;;;;;;;4149827;34;20103;-69
2021/09/28 07:15:11;;;;;;;12.70;5.00;;;;;;;;;;4149706;34;20154;-63
2021/09/28 07:17:37;;;;;;;7.97;5.25;;;;;;;;;;4149699;34;20108;-69
2021/09/28 07:20:04;;;;;;;6.85;5.00;;;;;;;;;;4149817;34;20142;-63
2021/09/28 07:22:31;;;;;;;11.73;4.95;;;;;;;;;;4149756;34;20162;-64
2021/09/28 07:24:58;;;;;;;8.15;4.72;;;;;;;;;;4126523;34;20102;-64
2021/09/28 07:27:24;;;;;;;11.95;4.95;;;;;;;;;;4125945;34;20134;-64
2021/09/28 07:29:50;;;;;;;7.45;5.15;;;;;;;;;;4137359;34;20488;-69
2021/09/28 07:32:16;;;;;;;11.15;5.47;;;;;;;;;;4149468;34;20120;-63
2021/09/28 07:34:42;;;;;;;6.45;5.18;;;;;;;;;;4149357;34;20138;-65
2021/09/28 07:37:08;;;;;;;10.32;5.10;;;;;;;;;;4136589;34;20115;-62
2021/09/28 07:39:34;;;;;;;6.10;4.97;;;;;;;;;;4151587;34;20134;-63
2021/09/28 07:42:00;;;;;;;11.40;6.40;;;;;;;;;;4138652;34;20114;-62
2021/09/28 07:44:27;;;;;;;11.23;5.20;;;;;;;;;;4151725;34;20230;-63
2021/09/28 07:46:53;;;;;;;10.45;5.47;;;;;;;;;;4151483;34;20193;-69
2021/09/28 07:49:19;;;;;;;6.25;5.15;;;;;;;;;;4151423;34;20141;-68
2021/09/28 07:51:45;;;;;;;9.32;4.45;;;;;;;;;;4151375;34;20145;-68
2021/09/28 07:54:11;;;;;;;5.93;4.37;;;;;;;;;;4127703;34;20134;-65
2021/09/28 07:56:37;;;;;;;12.00;4.93;;;;;;;;;;4138886;34;20119;-64
2021/09/28 07:59:07;;;;;;;12.37;4.60;;;;;;;;;;4151340;34;20448;-66
2021/09/28 08:01:33;;;;;;;10.45;5.57;;;;;;;;;;4151301;34;20285;-65
2021/09/28 08:03:59;;;;;;;7.00;5.15;;;;;;;;;;4151281;34;20198;-65
2021/09/28 08:06:25;;;;;;;6.20;4.50;;;;;;;;;;4151151;34;20115;-65
2021/09/28 08:08:51;;;;;;;7.37;5.18;;;;;;;;;;4151250;34;20133;-65
2021/09/28 08:11:17;;;;;;;7.45;4.60;;;;;;;;;;4150838;34;20107;-65
2021/09/28 08:13:43;;;;;;;8.02;4.97;;;;;;;;;;4151095;34;20545;-63
2021/09/28 08:16:09;;;;;;;5.70;5.10;;;;;;;;;;4151075;34;20218;-64
2021/09/28 08:18:35;;;;;;;6.07;4.70;;;;;;;;;;4146976;34;20131;-65
2021/09/28 08:21:10;;;;;;;5.95;4.62;;;;;;;;;;4151033;34;20523;-64
2021/09/28 08:23:47;;;;;;;8.90;4.70;;;;;;;;;;4139568;34;20131;-65
2021/09/28 08:29:15;;;;;;;7.90;4.37;;;;;;;;;;4125208;34;20134;-65
2021/09/28 08:31:47;;;;;;;11.12;5.65;;;;;;;;;;4149495;34;20177;-66
2021/09/28 08:34:13;;;;;;;9.25;5.78;;;;;;;;;;4151060;34;20095;-71
2021/09/28 08:36:39;;;;;;;9.07;5.40;;;;;;;;;;4150912;34;20535;-71
2021/09/28 08:39:08;;;;;;;12.52;6.47;;;;;;;;;;4151076;34;20163;-65
2021/09/28 08:41:37;;;;;;;11.10;5.15;;;;;;;;;;4149754;34;20549;-67
2021/09/28 08:44:03;;;;;;;7.55;5.37;;;;;;;;;;4150942;34;20091;-70
2021/09/28 08:46:29;;;;;;;10.32;6.45;;;;;;;;;;4151068;34;20462;-71
2021/09/28 08:48:55;;;;;;;7.35;6.20;;;;;;;;;;4149237;34;20216;-71
2021/09/28 08:51:21;;;;;;;10.40;7.35;;;;;;;;;;4150713;34;20531;-66
2021/09/28 08:53:49;;;;;;;14.02;7.93;;;;;;;;;;4149786;34;20111;-65
2021/09/28 08:56:16;;;;;;;11.18;7.45;;;;;;;;;;4151032;34;20630;-71
2021/09/28 08:59:15;;;;;;;10.88;7.70;;;;;;;;;;4151078;34;20334;-65
2021/09/28 09:01:58;;;;;;;10.93;6.72;;;;;;;;;;4127763;34;20130;-65
2021/09/28 09:04:25;;;;;;;9.70;6.62;;;;;;;;;;4149508;34;20103;-67
2021/09/28 09:06:51;;;;;;;14.65;6.90;;;;;;;;;;4149824;34;20130;-67
2021/09/28 09:09:17;;;;;;;15.80;6.65;;;;;;;;;;4149480;34;20170;-63
2021/09/28 09:11:48;;;;;;;8.95;6.55;;;;;;;;;;4149247;34;20675;-71
2021/09/28 09:14:24;;;;;;;11.00;6.50;;;;;;;;;;4150755;34;20424;-64
2021/09/28 09:16:51;;;;;;;8.90;6.78;;;;;;;;;;4150877;34;20626;-67
2021/09/28 09:19:24;;;;;;;8.75;5.75;;;;;;;;;;4150882;34;20566;-69
2021/09/28 09:21:51;;;;;;;8.43;6.47;;;;;;;;;;4150836;34;20107;-67
2021/09/28 09:24:46;;;;;;;14.55;6.50;;;;;;;;;;4150729;34;20119;-64
2021/09/28 09:27:14;;;;;;;14.75;6.65;;;;;;;;;;4151022;34;20095;-62
2021/09/28 09:29:40;;;;;;;10.07;6.10;;;;;;;;;;4149687;34;20127;-61
2021/09/28 09:32:06;;;;;;;10.50;6.07;;;;;;;;;;4138314;34;20200;-67
2021/09/28 09:34:32;;;;;;;8.10;5.60;;;;;;;;;;4150956;34;20515;-68
2021/09/28 09:36:58;;;;;;;6.78;5.15;;;;;;;;;;4149144;34;20126;-68
2021/09/28 09:39:28;;;;;;;11.20;5.72;;;;;;;;;;4149245;34;20151;-68
2021/09/28 09:42:05;;;;;;;8.10;5.00;;;;;;;;;;4150844;34;20139;-67
2021/09/28 09:44:31;;;;;;;5.93;5.10;;;;;;;;;;4150592;34;20189;-62
2021/09/28 09:47:00;;;;;;;12.98;5.80;;;;;;;;;;4150799;34;20250;-61
2021/09/28 09:49:31;;;;;;;8.02;5.28;;;;;;;;;;4150568;34;20137;-64
2021/09/28 09:52:03;;;;;;;6.65;5.15;;;;;;;;;;4150387;34;20099;-64
2021/09/28 09:54:34;;;;;;;6.32;4.87;;;;;;;;;;4150528;34;20123;-61
2021/09/28 09:57:04;;;;;;;7.22;4.62;;;;;;;;;;4149057;34;20206;-62
2021/09/28 09:59:31;;;;;;;9.45;5.10;;;;;;;;;;4150698;34;20099;-64
2021/09/28 10:01:57;;;;;;;11.85;5.00;;;;;;;;;;4150540;34;20108;-62
2021/09/28 10:04:23;;;;;;;5.97;4.60;;;;;;;;;;4148960;34;20203;-65
2021/09/28 10:06:50;;;;;;;6.78;5.00;;;;;;;;;;4137737;34;20121;-64
2021/09/28 10:09:24;;;;;;;6.53;4.43;;;;;;;;;;4150161;34;20119;-65
2021/09/28 10:11:54;;;;;;;7.20;4.93;;;;;;;;;;4137797;34;20103;-61
2021/09/28 10:14:35;;;;;;;5.05;4.50;;;;;;;;;;4150165;34;20149;-61
2021/09/28 10:17:28;;;;;;;6.35;4.78;;;;;;;;;;4148715;34;20110;-64
2021/09/28 10:19:56;;;;;;;8.07;4.75;;;;;;;;;;4146421;34;20124;-63
2021/09/28 10:22:49;;;;;;;7.07;4.07;;;;;;;;;;4148564;34;20515;-65
2021/09/28 10:28:16;;;;;;;9.10;3.80;;;;;;;;;;4150039;34;20526;-65
2021/09/28 10:30:43;;;;;;;4.80;3.60;;;;;;;;;;4128896;34;20107;-65
2021/09/28 10:33:13;;;;;;;8.02;3.83;;;;;;;;;;4150183;34;20118;-65
2021/09/28 10:36:10;;;;;;;4.50;3.70;;;;;;;;;;4150104;34;20109;-64
2021/09/28 10:38:40;;;;;;;10.82;3.97;;;;;;;;;;4149872;34;20091;-63
2021/09/28 10:41:06;;;;;;;4.55;3.60;;;;;;;;;;4149970;34;20673;-62
2021/09/28 10:43:32;;;;;;;7.15;3.83;;;;;;;;;;4148561;34;20095;-62
2021/09/28 10:46:00;;;;;;;5.75;3.22;;;;;;;;;;4149933;34;20117;-63
2021/09/28 10:48:29;;;;;;;5.28;2.95;;;;;;;;;;4149970;34;20523;-67
2021/09/28 10:51:09;;;;;;;5.32;3.58;;;;;;;;;;4149931;34;20115;-65
2021/09/28 10:53:40;;;;;;;5.10;3.58;;;;;;;;;;4150133;34;20095;-67
2021/09/28 10:56:11;;;;;;;4.18;3.42;;;;;;;;;;4137339;34;20293;-67
2021/09/28 10:59:13;;;;;;;5.30;3.67;;;;;;;;;;4149868;34;20111;-67
2021/09/28 11:01:39;;;;;;;8.38;2.90;;;;;;;;;;4120439;34;20139;-68
2021/09/28 11:04:14;;;;;;;4.15;3.33;;;;;;;;;;4140213;34;20459;-67
2021/09/28 11:06:46;;;;;;;;;;;;;;;;;;4150076;34;20464;-68
2021/09/28 11:09:13;;;;;;;3.55;2.85;;;;;;;;;;4149864;34;20364;-67
2021/09/28 11:11:40;;;;;;;4.43;2.60;;;;;;;;;;4149672;34;20150;-67
2021/09/28 11:14:06;;;;;;;4.50;2.53;;;;;;;;;;4147735;34;20279;-68
2021/09/28 11:16:50;;;;;;;4.50;2.85;;;;;;;;;;4149630;34;20169;-67
2021/09/28 11:19:16;;;;;;;29.05;4.82;;;;;;;;;;4149604;34;20503;-65
2021/09/28 11:21:43;;;;;;;5.65;2.60;;;;;;;;;;4149746;34;20203;-66
2021/09/28 11:24:11;;;;;;;5.78;2.83;;;;;;;;;;4149550;34;20130;-66
2021/09/28 11:26:44;;;;;;;3.35;2.90;;;;;;;;;;4148202;34;20115;-66
2021/09/28 11:29:11;;;;;;;2.90;2.33;;;;;;;;;;4149465;34;20127;-67
2021/09/28 11:31:39;;;;;;;4.90;2.62;;;;;;;;;;4149836;34;20437;-66
2021/09/28 11:34:05;;;;;;;3.78;2.67;;;;;;;;;;4148006;34;20126;-67
2021/09/28 11:36:36;;;;;;;10.45;2.90;;;;;;;;;;4148255;34;20116;-71
2021/09/28 11:39:03;;;;;;;3.85;2.83;;;;;;;;;;4149574;34;20235;-67
2021/09/28 11:41:29;;;;;;;3.97;2.30;;;;;;;;;;4148230;34;20124;-66
2021/09/28 11:43:56;;;;;;;11.07;2.47;;;;;;;;;;4148148;34;20217;-67
2021/09/28 11:46:27;;;;;;;5.15;2.22;;;;;;;;;;4148059;34;20109;-67
2021/09/28 11:49:04;;;;;;;2.42;2.10;;;;;;;;;;4149431;34;20104;-70
2021/09/28 11:51:41;;;;;;;2.72;2.00;;;;;;;;;;4148332;34;20171;-65
2021/09/28 11:54:11;;;;;;;2.03;1.80;;;;;;;;;;4149426;34;20186;-68
2021/09/28 11:56:41;;;;;;;2.22;1.70;;;;;;;;;;4149491;34;20534;-70
2021/09/28 11:59:17;;;;;;;4.72;1.83;;;;;;;;;;4148156;34;20087;-71
2021/09/28 12:01:47;;;;;;;5.68;1.77;;;;;;;;;;4149495;34;20103;-71
2021/09/28 12:07:57;;;;;;;3.78;2.00;;;;;;;;;;4148105;34;20119;-70
2021/09/28 12:10:15;;;;;;;2.62;1.90;;;;;;;;;;4149389;34;20261;-69
2021/09/28 12:12:41;;;;;;;5.87;1.95;;;;;;;;;;4147678;34;20111;-71
2021/09/28 12:15:07;;;;;;;10.27;2.90;;;;;;;;;;4149155;34;20121;-69
2021/09/28 12:17:38;;;;;;;2.15;1.80;;;;;;;;;;4147544;34;20127;-70
2021/09/28 12:20:05;;;;;;;4.37;1.80;;;;;;;;;;4149259;34;20485;-70
2021/09/28 12:22:43;;;;;;;2.22;2.00;;;;;;;;;;4149395;34;20195;-70
2021/09/28 12:25:12;;;;;;;4.85;1.80;;;;;;;;;;4150047;34;20114;-67
2021/09/28 12:27:55;;;;;;;4.62;2.00;;;;;;;;;;4151177;34;20123;-65
2021/09/28 12:30:22;;;;;;;4.97;2.00;;;;;;;;;;4151129;34;20114;-68
2021/09/28 12:32:48;;;;;;;3.10;1.50;;;;;;;;;;4150010;34;20127;-70
2021/09/28 12:35:15;;;;;;;3.20;1.67;;;;;;;;;;4149891;34;20118;-70
2021/09/28 12:37:50;;;;;;;3.47;2.20;;;;;;;;;;4151052;34;20194;-70
2021/09/28 12:40:17;;;;;;;3.60;1.92;;;;;;;;;;4151077;34;20495;-68
2021/09/28 12:42:43;;;;;;;4.12;2.10;;;;;;;;;;4149887;34;20186;-68
2021/09/28 12:45:11;;;;;;;2.15;1.95;;;;;;;;;;4149586;34;20456;-67
2021/09/28 12:47:41;;;;;;;2.15;1.90;;;;;;;;;;4150915;34;20130;-68
2021/09/28 12:50:43;;;;;;;6.12;2.00;;;;;;;;;;4149478;34;20190;-68
2021/09/28 12:53:13;;;;;;;4.43;1.77;;;;;;;;;;4095465;35;20130;-68
2021/09/28 12:55:41;;;;;;;5.62;2.00;;;;;;;;;;4137933;34;20119;-67
2021/09/28 12:58:12;;;;;;;3.70;2.40;;;;;;;;;;4149471;34;20106;-67
2021/09/28 13:00:38;;;;;;;4.72;2.10;;;;;;;;;;4149650;34;20540;-67
2021/09/28 13:03:05;;;;;;;2.33;2.03;;;;;;;;;;4150805;34;20223;-68
2021/09/28 13:05:34;;;;;;;11.10;2.47;;;;;;;;;;4150854;34;20102;-68
2021/09/28 13:08:00;;;;;;;1.80;1.70;;;;;;;;;;4149479;34;20121;-68
2021/09/28 13:10:26;;;;;;;2.60;2.30;;;;;;;;;;4150927;34;20130;-69
2021/09/28 13:12:52;;;;;;;3.55;1.73;;;;;;;;;;4149348;34;20207;-68
2021/09/28 13:15:19;;;;;;;2.10;1.90;;;;;;;;;;4149627;34;20161;-68
2021/09/28 13:17:45;;;;;;;3.72;2.55;;;;;;;;;;4150549;34;20119;-68
2021/09/28 13:20:13;;;;;;;4.10;2.12;;;;;;;;;;4150605;34;20115;-68
2021/09/28 13:22:39;;;;;;;2.65;1.80;;;;;;;;;;4150690;34;20689;-68
2021/09/28 13:25:06;;;;;;;4.10;1.98;;;;;;;;;;4150804;34;20475;-69
2021/09/28 13:27:32;;;;;;;2.92;1.87;;;;;;;;;;4138268;34;20090;-68
2021/09/28 13:29:58;;;;;;;3.80;1.98;;;;;;;;;;4149168;34;20137;-69
2021/09/28 13:32:24;;;;;;;6.75;2.00;;;;;;;;;;4149389;34;20135;-68
2021/09/28 13:34:50;;;;;;;3.37;2.00;;;;;;;;;;4149054;34;20190;-68
2021/09/28 13:37:16;;;;;;;3.12;1.90;;;;;;;;;;4148995;34;20139;-69
2021/09/28 13:39:42;;;;;;;2.25;1.92;;;;;;;;;;4150528;34;20227;-69
2021/09/28 13:42:09;;;;;;;2.67;2.20;;;;;;;;;;4150560;34;20519;-68
2021/09/28 13:44:35;;;;;;;3.80;2.95;;;;;;;;;;4149047;34;20263;-68
2021/09/28 13:47:01;;;;;;;6.28;2.40;;;;;;;;;;4150703;34;20135;-70
2021/09/28 13:49:27;;;;;;;7.00;2.78;;;;;;;;;;4150759;34;20103;-69
2021/09/28 13:51:54;;;;;;;3.80;2.40;;;;;;;;;;4149145;34;20221;-68
2021/09/28 13:54:20;;;;;;;2.95;2.12;;;;;;;;;;4150397;34;20109;-69
2021/09/28 13:56:46;;;;;;;3.00;2.40;;;;;;;;;;4148987;34;20524;-69
2021/09/28 13:59:12;;;;;;;3.97;1.85;;;;;;;;;;4150646;34;20099;-68
2021/09/28 14:01:38;;;;;;;5.03;2.10;;;;;;;;;;4150381;34;20527;-69
2021/09/28 14:04:04;;;;;;;4.93;2.28;;;;;;;;;;4149231;34;20126;-68
2021/09/28 14:06:31;;;;;;;3.10;2.08;;;;;;;;;;4148841;34;20660;-66
2021/09/28 14:08:57;;;;;;;4.20;2.40;;;;;;;;;;4150310;34;20523;-68
2021/09/28 14:11:23;;;;;;;3.22;2.53;;;;;;;;;;4150206;34;20125;-68
2021/09/28 14:13:49;;;;;;;5.70;2.50;;;;;;;;;;4150420;34;20114;-68
2021/09/28 14:16:15;;;;;;;10.10;2.47;;;;;;;;;;4150217;34;20531;-68
2021/09/28 14:18:41;;;;;;;2.45;2.20;;;;;;;;;;4150320;34;20111;-68
2021/09/28 14:21:07;;;;;;;2.83;2.55;;;;;;;;;;4150426;34;20117;-68
2021/09/28 14:23:36;;;;;;;4.80;2.65;;;;;;;;;;4150204;34;20111;-68
2021/09/28 14:26:03;;;;;;;2.30;2.10;;;;;;;;;;4148900;34;20106;-67
2021/09/28 14:28:29;;;;;;;4.62;2.67;;;;;;;;;;4150390;34;20112;-67
2021/09/28 14:30:55;;;;;;;9.23;2.40;;;;;;;;;;4148786;34;20134;-67
2021/09/28 14:33:23;;;;;;;5.53;2.70;;;;;;;;;;4150135;34;20133;-67
2021/09/28 14:35:49;;;;;;;4.35;2.83;;;;;;;;;;4150147;34;20547;-67
2021/09/28 14:38:15;;;;;;;6.10;2.50;;;;;;;;;;4150306;34;20111;-66
2021/09/28 14:40:41;;;;;;;4.10;2.50;;;;;;;;;;4150005;34;20591;-67
2021/09/28 14:43:07;;;;;;;4.15;2.35;;;;;;;;;;4149951;34;20110;-67
2021/09/28 14:45:33;;;;;;;5.37;2.40;;;;;;;;;;4149995;34;20103;-68
2021/09/28 14:47:59;;;;;;;3.08;2.78;;;;;;;;;;4147799;34;20114;-68
2021/09/28 14:50:25;;;;;;;3.05;2.28;;;;;;;;;;4171441;34;20099;-68
2021/09/28 14:52:51;;;;;;;4.55;2.80;;;;;;;;;;4171307;34;20207;-67
2021/09/28 14:55:17;;;;;;;4.10;2.60;;;;;;;;;;4149798;34;20162;-68
2021/09/28 14:57:43;;;;;;;2.60;2.15;;;;;;;;;;4149923;34;20118;-67
2021/09/28 15:00:12;;;;;;;2.60;2.30;;;;;;;;;;4149545;34;20223;-68
2021/09/28 15:02:38;;;;;;;5.20;2.50;;;;;;;;;;4170903;34;20191;-67
2021/09/28 15:05:05;;;;;;;2.85;2.50;;;;;;;;;;4149898;34;20093;-68
2021/09/28 15:07:31;;;;;;;5.07;2.42;;;;;;;;;;4149763;34;20115;-68
2021/09/28 15:09:57;;;;;;;2.65;2.40;;;;;;;;;;4170839;34;20133;-68
2021/09/28 15:12:23;;;;;;;3.35;2.30;;;;;;;;;;4170770;34;20479;-66